Laguna (440) Station Data

Red Flag Warning: No
Fire Weather Zone: 258
SDGE Region: Mountain Empire
Lat/Lon: 32.845/-116.472

Observations

Time Wind Speed/Gust Temp(F) RH Fuel Moist Fuel Temp(F) Dewpt(F) Tmax(F) Tmin(F) Accum Precip 10-min Precip SL Press(mb)
3/29 8:00am 46 11 G 20 56° 14% - - 57.5° 39.6° - - -
3/29 7:50am 44 9 G 18 55° 15% - - 55.9° 39.6° - - -
3/29 7:40am 53 8 G 15 54° 17% - - 10° 54.7° 39.6° - - -
3/29 7:30am 47 9 G 16 54° 16% - - 54.3° 39.6° - - -
3/29 7:20am 36 8 G 15 52° 18% - - 10° 53.8° 39.6° - - -
3/29 7:10am 40 8 G 14 53° 18% - - 10° 53.8° 39.6° - - -
3/29 7:00am 43 9 G 15 53° 17% - - 53.8° 39.6° - - -
3/29 6:50am 36 8 G 15 52° 17% - - 53.8° 39.6° - - -
3/29 6:40am 357 6 G 12 51° 19% - - 10° 53.8° 39.6° - - -
3/29 6:30am 20 6 G 15 52° 18% - - 53.8° 39.6° - - -
3/29 6:20am 33 9 G 16 52° 17% - - 53.8° 39.6° - - -
3/29 6:10am 41 10 G 17 52° 17% - - 53.8° 39.6° - - -
3/29 6:00am 35 9 G 16 52° 16% - - 53.8° 39.6° - - -
3/29 5:50am 42 11 G 18 53° 15% - - 53.8° 39.6° - - -
3/29 5:40am 43 11 G 17 53° 15% - - 53.8° 39.6° - - -
3/29 5:30am 39 10 G 17 53° 15% - - 53.8° 39.6° - - -
3/29 5:20am 36 7 G 15 52° 17% - - 53.8° 39.6° - - -
3/29 5:10am 15 4 G 9 51° 17% - - 53.8° 39.6° - - -
3/29 5:00am 41 6 G 10 52° 16% - - 53.8° 39.6° - - -
3/29 4:50am 52 8 G 14 52° 17% - - 53.8° 39.6° - - -
3/29 4:40am 48 7 G 12 52° 17% - - 53.8° 39.6° - - -
3/29 4:30am 51 6 G 12 51° 18% - - 53.8° 39.6° - - -
3/29 4:20am 42 6 G 10 51° 19% - - 53.8° 39.6° - - -
3/29 4:10am 25 6 G 9 51° 18% - - 53.8° 39.6° - - -
3/29 4:00am 15 6 G 13 52° 18% - - 53.8° 39.6° - - -
3/29 3:50am 28 7 G 17 52° 17% - - 53.8° 39.6° - - -
3/29 3:40am 33 10 G 21 53° 16% - - 53.8° 39.6° - - -
3/29 3:30am 38 13 G 21 53° 16% - - 53.8° 39.6° - - -
3/29 3:20am 42 14 G 23 53° 16% - - 53.8° 39.6° - - -
3/29 3:10am 45 13 G 25 53° 16% - - 53.8° 39.6° - - -
3/29 3:00am 45 12 G 22 53° 16% - - 53.8° 39.6° - - -
3/29 2:50am 51 13 G 21 53° 16% - - 53.8° 39.6° - - -
3/29 2:40am 61 15 G 27 53° 16% - - 53.8° 39.6° - - -
3/29 2:30am 62 15 G 25 53° 16% - - 53.8° 39.6° - - -
3/29 2:20am 63 15 G 29 53° 16% - - 53.8° 39.6° - - -
3/29 2:10am 58 16 G 26 53° 16% - - 53.8° 39.6° - - -
3/29 2:00am 45 15 G 27 53° 16% - - 53.8° 39.6° - - -
3/29 1:50am 40 15 G 27 53° 16% - - 53.8° 39.6° - - -
3/29 1:40am 43 17 G 30 53° 15% - - 53.8° 39.6° - - -
3/29 1:30am 37 14 G 25 53° 15% - - 53.4° 39.6° - - -
3/29 1:20am 33 12 G 23 52° 17% - - 53° 39.6° - - -
3/29 1:10am 19 4 G 9 46° 25% - - 11° 49.1° 39.6° - - -
3/29 1:00am 14 2 G 5 41° 36% - - 15° 48.5° 39.6° - - -
3/29 12:50am 69 1 G 4 40° 37% - - 16° 48.5° 39.6° - - -
3/29 12:40am 116 1 G 6 40° 39% - - 17° 48.5° 39.6° - - -
3/29 12:30am 163 0 G 2 41° 35% - - 16° 48.5° 40.7° - - -
3/29 12:20am 30 2 G 5 47° 26% - - 14° 48.5° 43.3° - - -
3/29 12:10am 32 4 G 8 47° 24% - - 12° 48.5° 45.7° - - -
3/29 12:00am 61 4 G 6 41° 35% - - 15° 62° 30.1° - - -
3/28 11:50pm 108 3 G 6 37° 45% - - 18° 62° 30.1° - - -
3/28 11:40pm 120 3 G 5 37° 47% - - 18° 62° 30.1° - - -
3/28 11:30pm 107 3 G 5 35° 52% - - 19° 62° 30.1° - - -
3/28 11:20pm 97 1 G 4 34° 57% - - 20° 62° 30.1° - - -
3/28 11:10pm 48 1 G 5 34° 59% - - 21° 62° 30.1° - - -
3/28 11:00pm 64 2 G 5 34° 61% - - 21° 62° 30.1° - - -
3/28 10:50pm 64 2 G 3 34° 61% - - 22° 62° 30.1° - - -
3/28 10:40pm 100 2 G 3 34° 60% - - 22° 62° 30.1° - - -
3/28 10:30pm 43 1 G 2 34° 64% - - 23° 62° 30.1° - - -
3/28 10:20pm 81 2 G 4 35° 64% - - 24° 62° 30.1° - - -
3/28 10:10pm 101 1 G 4 35° 64% - - 24° 62° 30.1° - - -
3/28 10:00pm 114 2 G 4 36° 66% - - 25° 62° 30.1° - - -
3/28 9:50pm 40 1 G 3 35° 70% - - 27° 62° 30.1° - - -
3/28 9:40pm 158 2 G 3 36° 68% - - 26° 62° 30.1° - - -
3/28 9:30pm 67 2 G 4 37° 72% - - 28° 62° 30.1° - - -
3/28 9:20pm 129 2 G 3 37° 71% - - 29° 62° 30.1° - - -
3/28 9:10pm 64 2 G 3 38° 75% - - 31° 62° 30.1° - - -
3/28 9:00pm 83 2 G 3 38° 79% - - 33° 62° 30.1° - - -
3/28 8:50pm 105 2 G 4 39° 81% - - 33° 62° 30.1° - - -
3/28 8:40pm 94 3 G 4 41° 80% - - 35° 62° 30.1° - - -
3/28 8:30pm 97 3 G 6 40° 84% - - 35° 62° 30.1° - - -
3/28 8:20pm 179 2 G 4 41° 81% - - 35° 62° 30.1° - - -
3/28 8:10pm 69 2 G 4 41° 82% - - 36° 62° 30.1° - - -
3/28 8:00pm 127 2 G 4 42° 80% - - 37° 62° 30.1° - - -
3/28 7:50pm 118 2 G 4 43° 79% - - 37° 62° 30.1° - - -
3/28 7:40pm 176 1 G 3 45° 76% - - 38° 62° 30.1° - - -
3/28 7:30pm 92 2 G 3 48° 73% - - 39° 62° 30.1° - - -
3/28 7:20pm 195 1 G 2 49° 70% - - 40° 62° 30.1° - - -
3/28 7:10pm 301 2 G 4 49° 69% - - 40° 62° 30.1° - - -
3/28 7:00pm 204 1 G 4 50° 67% - - 40° 62° 30.1° - - -
3/28 6:50pm 275 2 G 4 52° 64% - - 40° 62° 30.1° - - -
3/28 6:40pm 226 3 G 7 53° 61% - - 40° 62° 30.1° - - -
3/28 6:30pm 277 3 G 6 54° 57% - - 39° 62° 30.1° - - -
3/28 6:20pm 242 3 G 7 55° 52% - - 38° 62° 30.1° - - -
3/28 6:10pm 247 2 G 6 56° 51% - - 38° 62° 30.1° - - -
3/28 6:00pm 301 4 G 11 56° 48% - - 37° 62° 30.1° - - -
3/28 5:50pm 264 6 G 11 56° 44% - - 35° 62° 30.1° - - -
3/28 5:40pm 274 4 G 9 58° 40% - - 34° 62° 30.1° - - -
3/28 5:30pm 218 4 G 9 59° 39% - - 34° 62° 30.1° - - -
3/28 5:20pm 204 4 G 10 59° 36% - - 32° 62° 30.1° - - -
3/28 5:10pm 251 4 G 9 60° 35% - - 32° 62° 30.1° - - -
3/28 5:00pm 310 5 G 11 60° 34% - - 32° 62° 30.1° - - -
3/28 4:50pm 271 3 G 7 61° 32% - - 31° 62° 30.1° - - -
3/28 4:40pm 236 2 G 6 61° 33% - - 31° 61.9° 30.1° - - -
3/28 4:30pm 264 4 G 9 60° 33% - - 31° 61.9° 30.1° - - -
3/28 4:20pm 352 3 G 7 60° 32% - - 30° 61.8° 30.1° - - -
3/28 4:10pm 237 5 G 8 60° 31% - - 29° 61.8° 30.1° - - -
3/28 4:00pm 236 5 G 12 60° 31% - - 29° 61.8° 30.1° - - -
3/28 3:50pm 235 4 G 10 61° 30% - - 29° 61.8° 30.1° - - -
3/28 3:40pm 223 5 G 11 60° 30% - - 29° 61.8° 30.1° - - -
3/28 3:30pm 216 5 G 10 61° 30% - - 29° 61.8° 30.1° - - -
3/28 3:20pm 190 6 G 14 60° 30% - - 29° 61.8° 30.1° - - -
3/28 3:10pm 186 4 G 9 61° 30% - - 29° 61.8° 30.1° - - -
3/28 3:00pm 271 2 G 6 61° 28% - - 27° 61.8° 30.1° - - -
3/28 2:50pm 244 4 G 11 60° 29% - - 28° 61.8° 30.1° - - -
3/28 2:40pm 213 5 G 12 59° 29% - - 27° 61.8° 30.1° - - -
3/28 2:30pm 209 6 G 11 59° 30% - - 28° 61.8° 30.1° - - -
3/28 2:20pm 207 6 G 10 60° 30% - - 28° 61.8° 30.1° - - -
3/28 2:10pm 233 5 G 11 60° 29% - - 27° 61.8° 30.1° - - -
3/28 2:00pm 229 4 G 10 60° 31% - - 29° 61.8° 30.1° - - -
3/28 1:50pm 198 6 G 12 59° 31% - - 28° 60° 30.1° - - -
3/28 1:40pm 289 4 G 9 59° 28% - - 26° 60° 30.1° - - -
3/28 1:30pm 215 5 G 12 59° 28% - - 26° 59.9° 30.1° - - -
3/28 1:20pm 177 2 G 8 59° 26% - - 24° 59.8° 30.1° - - -
3/28 1:10pm 346 6 G 12 58° 17% - - 14° 59.5° 30.1° - - -
3/28 1:00pm 344 3 G 7 59° 15% - - 11° 59.5° 30.1° - - -
3/28 12:50pm 46 3 G 9 57° 15% - - 10° 58.6° 30.1° - - -
3/28 12:40pm 16 5 G 11 57° 14% - - 58.3° 30.1° - - -
3/28 12:30pm 303 4 G 11 57° 14% - - 58.3° 30.1° - - -
3/28 12:20pm 354 6 G 10 57° 15% - - 10° 57.3° 30.1° - - -
3/28 12:10pm 321 3 G 9 56° 15% - - 57.2° 30.1° - - -
3/28 12:00pm 9 7 G 12 55° 16% - - 10° 55.7° 30.1° - - -
3/28 11:50am 65 4 G 9 55° 15% - - 55.5° 30.1° - - -
3/28 11:40am 8 6 G 10 54° 17% - - 10° 55° 30.1° - - -
3/28 11:30am 14 8 G 13 53° 17% - - 10° 53.9° 30.1° - - -
3/28 11:20am 18 10 G 17 53° 16% - - 53.5° 30.1° - - -
3/28 11:10am 14 10 G 19 53° 16% - - 53.3° 30.1° - - -
3/28 11:00am 24 12 G 19 52° 16% - - 52.8° 30.1° - - -
3/28 10:50am 28 11 G 21 52° 17% - - 52.8° 30.1° - - -
3/28 10:40am 28 11 G 18 52° 17% - - 52.8° 30.1° - - -
3/28 10:30am 19 12 G 19 52° 16% - - 52.8° 30.1° - - -
3/28 10:20am 37 10 G 18 52° 18% - - 52.8° 30.1° - - -
3/28 10:10am 27 10 G 20 52° 18% - - 10° 52.1° 30.1° - - -
3/28 10:00am 20 11 G 18 52° 18% - - 10° 52.1° 30.1° - - -
3/28 9:50am 27 12 G 20 51° 17% - - 51.5° 30.1° - - -
3/28 9:40am 31 11 G 22 51° 17% - - 51.3° 30.1° - - -
3/28 9:30am 49 12 G 21 51° 17% - - 51.1° 30.1° - - -
3/28 9:20am 45 13 G 20 50° 18% - - 50.8° 30.1° - - -
3/28 9:10am 48 11 G 17 50° 18% - - 50.8° 30.1° - - -
3/28 9:00am 41 9 G 20 50° 19% - - 10° 50.6° 30.1° - - -
3/28 8:50am 39 11 G 20 50° 19% - - 49.8° 30.1° - - -
3/28 8:40am 41 12 G 24 49° 19% - - 49.8° 30.1° - - -
3/28 8:30am 36 10 G 19 49° 20% - - 49.4° 30.1° - - -
3/28 8:20am 44 10 G 21 49° 20% - - 10° 48.9° 30.1° - - -
3/28 8:10am 53 10 G 17 48° 20% - - 10° 48.6° 30.1° - - -
3/28 8:00am 57 11 G 18 48° 21% - - 47.9° 30.1° - - -
3/28 7:50am 54 13 G 20 47° 21% - - 47.6° 30.1° - - -
3/28 7:40am 50 12 G 18 46° 22% - - 10° 46.8° 30.1° - - -
3/28 7:30am 55 9 G 17 46° 23% - - 10° 46° 30.1° - - -
3/28 7:20am 61 11 G 19 45° 23% - - 45.7° 30.1° - - -
3/28 7:10am 59 10 G 18 45° 22% - - 45.7° 30.1° - - -
3/28 7:00am 57 10 G 17 45° 22% - - 45.7° 30.1° - - -
3/28 6:50am 48 8 G 16 45° 22% - - 45.3° 30.1° - - -
3/28 6:40am 32 5 G 11 45° 22% - - 45.1° 30.1° - - -
3/28 6:30am 40 7 G 15 44° 23% - - 44.8° 30.1° - - -
3/28 6:20am 42 5 G 15 39° 36% - - 13° 44.6° 30.1° - - -
3/28 6:10am 89 3 G 6 34° 54% - - 19° 44.6° 30.1° - - -
3/28 6:00am 35 2 G 5 35° 53% - - 20° 44.6° 30.1° - - -